createdAt,value
2018-03-27T00:01:16.954Z,13.50
2018-03-27T00:03:44.410Z,13.03
2018-03-27T00:06:11.863Z,14.70
2018-03-27T00:08:39.314Z,13.80
2018-03-27T00:11:06.815Z,13.83
2018-03-27T00:13:34.275Z,14.93
2018-03-27T00:16:01.745Z,15.33
2018-03-27T00:18:29.209Z,16.83
2018-03-27T00:20:57.519Z,15.63
2018-03-27T00:23:24.983Z,17.27
2018-03-27T00:25:52.451Z,17.07
2018-03-27T00:28:32.579Z,17.23
2018-03-27T00:31:11.880Z,15.10
2018-03-27T00:33:51.331Z,15.60
2018-03-27T00:36:31.188Z,16.60
2018-03-27T00:39:10.612Z,16.43
2018-03-27T00:44:51.776Z,15.53
2018-03-27T00:47:19.229Z,15.60
2018-03-27T00:49:46.701Z,16.70
2018-03-27T00:52:14.159Z,16.07
2018-03-27T00:54:41.608Z,16.60
2018-03-27T00:57:09.063Z,15.83
2018-03-27T00:59:36.505Z,15.90
2018-03-27T01:02:04.738Z,15.97
2018-03-27T01:04:32.209Z,16.77
2018-03-27T01:06:59.694Z,16.57
2018-03-27T01:09:27.962Z,17.53
2018-03-27T01:11:56.173Z,15.80
2018-03-27T01:14:23.631Z,16.80
2018-03-27T01:16:51.110Z,17.67
2018-03-27T01:19:19.324Z,16.13
2018-03-27T01:21:47.546Z,17.03
2018-03-27T01:24:15.041Z,17.33
2018-03-27T01:26:42.508Z,16.33
2018-03-27T01:29:09.977Z,17.30
2018-03-27T01:31:38.204Z,16.97
2018-03-27T01:34:05.676Z,18.37
2018-03-27T01:36:33.120Z,19.07
2018-03-27T01:39:00.603Z,17.07
2018-03-27T01:41:28.061Z,17.40
2018-03-27T01:43:55.537Z,17.47
2018-03-27T01:46:23.770Z,16.67
2018-03-27T01:48:51.221Z,16.90
2018-03-27T01:51:18.685Z,18.17
2018-03-27T01:53:46.139Z,16.40
2018-03-27T01:56:13.598Z,17.37
2018-03-27T01:58:41.044Z,16.33
2018-03-27T02:01:08.501Z,17.83
2018-03-27T02:03:35.953Z,18.17
2018-03-27T02:06:03.468Z,20.10
2018-03-27T02:08:31.701Z,18.90
2018-03-27T02:11:04.759Z,19.30
2018-03-27T02:13:37.961Z,19.90
2018-03-27T02:16:11.323Z,19.77
2018-03-27T02:18:45.309Z,19.87
2018-03-27T02:21:18.441Z,21.63
2018-03-27T02:23:45.907Z,19.93
2018-03-27T02:26:13.355Z,20.27
2018-03-27T02:28:40.827Z,20.07
2018-03-27T02:31:08.300Z,19.17
2018-03-27T02:33:36.554Z,20.83
2018-03-27T02:36:03.996Z,20.10
2018-03-27T02:38:31.461Z,21.10
2018-03-27T02:40:58.920Z,19.07
2018-03-27T02:43:26.367Z,20.33
2018-03-27T02:45:53.823Z,19.60
2018-03-27T02:48:21.285Z,19.83
2018-03-27T02:50:48.737Z,19.70
2018-03-27T02:53:16.189Z,18.37
2018-03-27T02:55:43.652Z,18.00
2018-03-27T02:58:11.103Z,20.50
2018-03-27T03:00:38.571Z,19.63
2018-03-27T03:03:06.036Z,19.93
2018-03-27T03:05:33.510Z,19.40
2018-03-27T03:08:00.970Z,19.37
2018-03-27T03:10:28.447Z,18.30
2018-03-27T03:12:55.894Z,20.63
2018-03-27T03:15:23.339Z,20.13
2018-03-27T03:17:50.795Z,19.70
2018-03-27T03:20:18.285Z,19.20
2018-03-27T03:22:47.427Z,19.33
2018-03-27T03:25:14.902Z,20.00
2018-03-27T03:27:42.380Z,19.87
2018-03-27T03:30:09.830Z,19.57
2018-03-27T03:32:37.282Z,20.47
2018-03-27T03:35:04.756Z,21.13
2018-03-27T03:37:32.229Z,20.33
2018-03-27T03:40:01.139Z,20.57
2018-03-27T03:42:28.595Z,19.97
2018-03-27T03:44:56.076Z,19.47
2018-03-27T03:47:23.561Z,20.27
2018-03-27T03:49:51.026Z,19.63
2018-03-27T03:52:18.477Z,20.87
2018-03-27T03:54:45.951Z,20.37
2018-03-27T03:57:14.174Z,20.23
2018-03-27T03:59:41.622Z,20.33
2018-03-27T04:02:09.620Z,20.40
2018-03-27T04:04:37.082Z,19.60
2018-03-27T04:07:04.568Z,20.30
2018-03-27T04:09:32.851Z,19.63
2018-03-27T04:12:00.285Z,20.63
2018-03-27T04:14:27.763Z,20.63
2018-03-27T04:16:56.066Z,20.00
2018-03-27T04:19:23.528Z,21.00
2018-03-27T04:21:50.997Z,19.63
2018-03-27T04:24:18.448Z,21.70
2018-03-27T04:26:45.889Z,21.67
2018-03-27T04:29:13.353Z,21.07
2018-03-27T04:31:40.815Z,21.00
2018-03-27T04:34:08.310Z,21.53
2018-03-27T04:36:35.781Z,19.97
2018-03-27T04:39:04.005Z,19.90
2018-03-27T04:41:31.626Z,21.60
2018-03-27T04:43:59.835Z,19.57
2018-03-27T04:46:27.303Z,19.83
2018-03-27T04:48:54.756Z,19.20
2018-03-27T04:51:22.221Z,19.30
2018-03-27T04:53:49.692Z,19.80
2018-03-27T04:56:17.173Z,19.30
2018-03-27T04:58:45.429Z,20.20
2018-03-27T05:01:12.881Z,20.07
2018-03-27T05:03:40.361Z,18.33
2018-03-27T05:06:07.834Z,19.53
2018-03-27T05:08:35.296Z,18.10
2018-03-27T05:11:02.784Z,16.60
2018-03-27T05:13:30.264Z,18.00
2018-03-27T05:15:57.729Z,18.67
2018-03-27T05:18:25.241Z,19.33
2018-03-27T05:20:52.680Z,18.20
2018-03-27T05:23:20.159Z,17.03
2018-03-27T05:25:47.626Z,19.13
2018-03-27T05:28:15.090Z,19.20
2018-03-27T05:30:42.561Z,20.13
2018-03-27T05:33:10.102Z,21.00
2018-03-27T05:35:37.571Z,22.53
2018-03-27T05:38:05.043Z,22.50
2018-03-27T05:40:32.519Z,22.40
2018-03-27T05:43:00.762Z,22.03
2018-03-27T05:45:28.243Z,23.07
2018-03-27T05:47:55.697Z,22.53
2018-03-27T05:50:23.131Z,23.13
2018-03-27T05:52:50.639Z,23.57
2018-03-27T05:55:18.842Z,23.97
2018-03-27T05:57:46.323Z,24.47
2018-03-27T06:00:13.795Z,23.87
2018-03-27T06:02:41.277Z,23.33
2018-03-27T06:05:09.549Z,22.47
2018-03-27T06:07:36.971Z,23.37
2018-03-27T06:10:04.433Z,21.37
2018-03-27T06:12:31.887Z,20.07
2018-03-27T06:14:59.335Z,19.73
2018-03-27T06:17:26.790Z,19.23
2018-03-27T06:19:54.258Z,19.70
2018-03-27T06:22:21.724Z,19.87
2018-03-27T06:24:49.204Z,21.73
2018-03-27T06:27:17.440Z,21.83
2018-03-27T06:29:44.906Z,20.97
2018-03-27T06:32:12.393Z,22.03
2018-03-27T06:34:40.606Z,21.57
2018-03-27T06:37:08.072Z,21.47
2018-03-27T06:39:35.521Z,20.33
2018-03-27T06:42:03.016Z,21.70
2018-03-27T06:44:30.449Z,23.77
2018-03-27T06:46:57.929Z,24.60
2018-03-27T06:49:25.372Z,23.30
2018-03-27T06:51:52.869Z,23.17
2018-03-27T06:54:21.097Z,23.27
2018-03-27T06:56:48.550Z,20.77
2018-03-27T06:59:16.000Z,21.30
2018-03-27T07:01:43.472Z,21.77
2018-03-27T07:04:10.932Z,22.60
2018-03-27T07:06:38.410Z,21.27
2018-03-27T07:09:05.882Z,22.80
2018-03-27T07:11:33.365Z,22.50
2018-03-27T07:14:01.588Z,22.33
2018-03-27T07:16:29.825Z,20.87
2018-03-27T07:18:57.287Z,21.10
2018-03-27T07:21:24.773Z,20.47
2018-03-27T07:23:52.255Z,22.60
2018-03-27T07:26:20.507Z,20.40
2018-03-27T07:28:47.981Z,21.70
2018-03-27T07:31:16.234Z,21.83
2018-03-27T07:33:43.702Z,21.30
2018-03-27T07:36:11.154Z,20.67
2018-03-27T07:38:38.662Z,21.70
2018-03-27T07:41:06.109Z,22.87
2018-03-27T07:43:33.563Z,22.37
2018-03-27T07:46:01.054Z,22.30
2018-03-27T07:48:29.336Z,22.73
2018-03-27T07:51:03.570Z,22.80
2018-03-27T07:53:31.266Z,23.33
2018-03-27T07:55:58.741Z,23.17
2018-03-27T07:58:26.184Z,24.10
2018-03-27T08:00:53.645Z,24.50
2018-03-27T08:03:21.117Z,22.90
2018-03-27T08:05:48.584Z,23.87
2018-03-27T08:08:16.048Z,22.67
2018-03-27T08:10:43.496Z,22.50
2018-03-27T08:13:10.987Z,22.27
2018-03-27T08:15:38.453Z,22.57
2018-03-27T08:18:05.935Z,21.37
2018-03-27T08:20:33.415Z,22.60
2018-03-27T08:23:00.864Z,21.93
2018-03-27T08:25:28.337Z,21.07
2018-03-27T08:27:55.806Z,20.17
2018-03-27T08:30:23.255Z,20.43
2018-03-27T08:32:50.717Z,21.17
2018-03-27T08:35:18.173Z,21.60
2018-03-27T08:37:45.627Z,20.60
2018-03-27T08:40:13.118Z,20.73
2018-03-27T08:42:40.572Z,19.60
2018-03-27T08:45:08.050Z,21.67
2018-03-27T08:47:36.291Z,21.53
2018-03-27T08:50:03.747Z,20.80
2018-03-27T08:52:31.191Z,20.97
2018-03-27T08:54:58.663Z,21.00
2018-03-27T08:57:26.149Z,21.13
2018-03-27T08:59:53.658Z,20.60
2018-03-27T09:02:21.113Z,22.00
2018-03-27T09:04:48.581Z,20.97
2018-03-27T09:07:16.076Z,20.33
2018-03-27T09:09:44.311Z,19.87
2018-03-27T09:12:11.772Z,20.30
2018-03-27T09:14:39.268Z,19.40
2018-03-27T09:17:07.511Z,20.37
2018-03-27T09:19:34.974Z,20.17
2018-03-27T09:22:02.445Z,18.53
2018-03-27T09:24:30.694Z,18.83
2018-03-27T09:26:58.155Z,17.83
2018-03-27T09:29:25.613Z,18.60
2018-03-27T09:31:53.075Z,16.27
2018-03-27T09:34:20.525Z,12.00
2018-03-27T09:36:47.996Z,11.50
2018-03-27T09:39:15.494Z,10.13
2018-03-27T09:41:42.975Z,10.53
2018-03-27T09:44:10.448Z,11.70
2018-03-27T09:46:37.907Z,9.40
2018-03-27T09:49:05.444Z,12.10
2018-03-27T09:51:33.640Z,12.17
2018-03-27T09:54:01.172Z,13.40
2018-03-27T09:56:28.665Z,10.53
2018-03-27T09:58:56.145Z,8.00
2018-03-27T10:01:28.299Z,8.57
2018-03-27T10:03:55.769Z,8.63
2018-03-27T10:06:23.986Z,8.57
2018-03-27T10:08:51.505Z,8.90
2018-03-27T10:11:18.971Z,9.47
2018-03-27T10:13:46.435Z,10.03
2018-03-27T10:16:13.932Z,10.30
2018-03-27T10:18:41.389Z,10.17
2018-03-27T10:21:08.881Z,10.40
2018-03-27T10:23:37.090Z,9.70
2018-03-27T10:26:04.544Z,9.10
2018-03-27T10:28:32.010Z,9.63
2018-03-27T10:30:59.481Z,8.93
2018-03-27T10:33:26.929Z,9.53
2018-03-27T10:35:54.416Z,9.40
2018-03-27T10:38:21.877Z,8.10
2018-03-27T10:40:49.360Z,8.73
2018-03-27T10:43:17.585Z,8.80
2018-03-27T10:45:45.033Z,9.70
2018-03-27T10:48:12.504Z,9.47
2018-03-27T10:50:39.995Z,8.97
2018-03-27T10:53:07.460Z,9.00
2018-03-27T10:55:35.730Z,9.13
2018-03-27T10:58:03.177Z,9.87
2018-03-27T11:00:30.641Z,9.43
2018-03-27T11:02:58.885Z,9.47
2018-03-27T11:05:26.349Z,9.77
2018-03-27T11:07:53.809Z,10.83
2018-03-27T11:10:21.294Z,11.53
2018-03-27T11:12:49.504Z,9.73
2018-03-27T11:15:16.975Z,9.83
2018-03-27T11:17:44.457Z,9.87
2018-03-27T11:20:11.903Z,9.90
2018-03-27T11:22:39.621Z,10.80
2018-03-27T11:25:07.926Z,10.57
2018-03-27T11:27:35.429Z,11.13
2018-03-27T11:30:03.676Z,10.77
2018-03-27T11:32:31.155Z,10.93
2018-03-27T11:34:58.628Z,11.70
2018-03-27T11:37:26.866Z,12.20
2018-03-27T11:39:54.365Z,13.83
2018-03-27T11:42:21.829Z,13.07
2018-03-27T11:44:49.296Z,12.80
2018-03-27T11:47:16.804Z,13.13
2018-03-27T11:49:44.257Z,14.23
2018-03-27T11:52:11.717Z,14.03
2018-03-27T11:54:39.230Z,14.43
2018-03-27T11:57:07.436Z,15.23
2018-03-27T11:59:34.918Z,16.60
2018-03-27T12:02:03.154Z,16.73
2018-03-27T12:04:30.614Z,16.67
2018-03-27T12:06:58.068Z,16.63
2018-03-27T12:09:25.557Z,15.77
2018-03-27T12:11:53.021Z,15.80
2018-03-27T12:14:21.265Z,15.43
2018-03-27T12:16:48.721Z,15.83
2018-03-27T12:19:16.216Z,15.43
2018-03-27T12:21:44.452Z,15.60
2018-03-27T12:24:11.943Z,15.67
2018-03-27T12:26:40.215Z,15.73
2018-03-27T12:29:08.465Z,15.17
2018-03-27T12:31:35.945Z,14.63
2018-03-27T12:34:03.393Z,15.00
2018-03-27T12:36:30.847Z,14.23
2018-03-27T12:38:58.335Z,15.67
2018-03-27T12:41:27.257Z,15.37
2018-03-27T12:43:54.729Z,15.07
2018-03-27T12:46:22.185Z,14.67
2018-03-27T12:48:49.641Z,15.17
2018-03-27T12:51:17.094Z,14.90
2018-03-27T12:53:44.564Z,15.67
2018-03-27T12:56:12.043Z,15.73
2018-03-27T12:58:39.503Z,14.00
2018-03-27T13:01:06.982Z,14.87
2018-03-27T13:03:34.432Z,14.77
2018-03-27T13:06:02.687Z,15.33
2018-03-27T13:08:30.165Z,14.67
2018-03-27T13:10:58.490Z,13.90
2018-03-27T13:13:25.944Z,14.97
2018-03-27T13:15:53.412Z,15.63
2018-03-27T13:18:20.911Z,15.63
2018-03-27T13:20:48.369Z,14.13
2018-03-27T13:23:15.840Z,15.13
2018-03-27T13:25:43.335Z,15.03
2018-03-27T13:28:10.797Z,16.43
2018-03-27T13:30:38.286Z,15.90
2018-03-27T13:33:05.742Z,14.90
2018-03-27T13:35:33.972Z,16.27
2018-03-27T13:38:01.478Z,15.27
2018-03-27T13:40:29.706Z,15.30
2018-03-27T13:42:57.971Z,15.70
2018-03-27T13:45:25.437Z,14.30
2018-03-27T13:47:52.876Z,14.97
2018-03-27T13:50:20.334Z,14.60
2018-03-27T13:52:47.841Z,14.97
2018-03-27T13:55:15.305Z,16.43
2018-03-27T13:57:43.545Z,16.73
2018-03-27T14:00:11.009Z,15.30
2018-03-27T14:02:38.482Z,16.33
2018-03-27T14:05:05.962Z,16.10
2018-03-27T14:07:34.210Z,15.27
2018-03-27T14:10:01.685Z,15.93
2018-03-27T14:12:29.962Z,15.93
2018-03-27T14:14:58.235Z,16.57
2018-03-27T14:17:25.674Z,17.40
2018-03-27T14:19:53.161Z,16.77
2018-03-27T14:22:21.385Z,22.40
2018-03-27T14:24:48.837Z,16.10
2018-03-27T14:27:16.294Z,15.37
2018-03-27T14:29:43.773Z,17.27
2018-03-27T14:32:11.260Z,16.63
2018-03-27T14:34:39.494Z,16.47
2018-03-27T14:37:06.999Z,15.77
2018-03-27T14:39:35.241Z,16.33
2018-03-27T14:42:02.693Z,15.40
2018-03-27T14:44:30.509Z,16.23
2018-03-27T14:46:57.938Z,15.50
2018-03-27T14:49:26.187Z,15.40
2018-03-27T14:51:53.637Z,16.67
2018-03-27T14:54:21.117Z,15.17
2018-03-27T14:56:48.600Z,16.90
2018-03-27T14:59:16.101Z,17.27
2018-03-27T15:01:43.565Z,16.43
2018-03-27T15:04:11.025Z,16.83
2018-03-27T15:06:38.509Z,16.63
2018-03-27T15:09:05.991Z,15.63
2018-03-27T15:11:33.481Z,15.63
2018-03-27T15:14:00.952Z,16.23
2018-03-27T15:16:28.438Z,16.23
2018-03-27T15:18:55.916Z,16.37
2018-03-27T15:21:23.427Z,16.57
2018-03-27T15:23:50.909Z,15.83
2018-03-27T15:26:18.427Z,16.00
2018-03-27T15:28:45.917Z,16.93
2018-03-27T15:31:14.286Z,17.07
2018-03-27T15:33:41.801Z,17.80
2018-03-27T15:36:09.359Z,17.40
2018-03-27T15:38:36.849Z,17.90
2018-03-27T15:41:04.366Z,17.67
2018-03-27T15:43:32.649Z,18.97
2018-03-27T15:46:00.159Z,17.23
2018-03-27T15:48:27.677Z,16.10
2018-03-27T15:50:55.171Z,16.13
2018-03-27T15:53:22.685Z,14.07
2018-03-27T15:55:50.170Z,14.37
2018-03-27T15:58:17.668Z,16.77
2018-03-27T16:00:45.158Z,18.20
2018-03-27T16:03:12.677Z,17.47
2018-03-27T16:05:40.922Z,16.90
2018-03-27T16:08:08.925Z,17.13
2018-03-27T16:10:37.213Z,19.30
2018-03-27T16:13:08.849Z,17.17
2018-03-27T16:15:36.386Z,18.67
2018-03-27T16:18:06.843Z,17.57
2018-03-27T16:20:35.364Z,16.60
2018-03-27T16:23:03.587Z,16.20
2018-03-27T16:25:31.835Z,11.97
2018-03-27T16:27:59.327Z,10.83
2018-03-27T16:30:28.058Z,10.53
2018-03-27T16:32:55.965Z,9.03
2018-03-27T16:35:23.476Z,9.10
2018-03-27T16:37:51.504Z,10.13
2018-03-27T16:40:18.987Z,10.27
2018-03-27T16:42:46.475Z,11.13
2018-03-27T16:45:14.746Z,12.23
2018-03-27T16:47:42.232Z,11.67
2018-03-27T16:50:09.754Z,12.40
2018-03-27T16:52:37.305Z,11.90
2018-03-27T16:55:04.844Z,11.67
2018-03-27T16:57:33.316Z,12.57
2018-03-27T17:00:01.565Z,11.57
2018-03-27T17:02:32.328Z,13.23
2018-03-27T17:05:00.575Z,12.60
2018-03-27T17:07:28.067Z,13.27
2018-03-27T17:09:56.110Z,16.60
2018-03-27T17:12:24.628Z,17.90
2018-03-27T17:14:52.139Z,14.70
2018-03-27T17:17:19.638Z,15.07
2018-03-27T17:19:47.155Z,19.37
2018-03-27T17:22:15.211Z,18.13
2018-03-27T17:24:42.755Z,16.77
2018-03-27T17:27:13.044Z,18.77
2018-03-27T17:29:40.583Z,18.90
2018-03-27T17:32:08.114Z,18.70
2018-03-27T17:34:35.648Z,17.77
2018-03-27T17:37:03.169Z,18.03
2018-03-27T17:39:32.230Z,19.73
2018-03-27T17:42:01.424Z,20.37
2018-03-27T17:44:28.980Z,21.60
2018-03-27T17:46:57.079Z,18.97
2018-03-27T17:49:24.575Z,22.97
2018-03-27T17:51:52.111Z,22.67
2018-03-27T17:54:21.328Z,22.20
2018-03-27T17:56:48.824Z,22.60
2018-03-27T17:59:17.535Z,24.27
2018-03-27T18:01:46.615Z,24.23
2018-03-27T18:04:15.160Z,22.23
2018-03-27T18:06:49.522Z,23.27
2018-03-27T18:09:17.044Z,25.37
2018-03-27T18:11:44.663Z,25.70
2018-03-27T18:14:12.812Z,31.33
2018-03-27T18:16:40.331Z,28.73
2018-03-27T18:19:09.575Z,28.37
2018-03-27T18:21:37.382Z,29.47
2018-03-27T18:24:06.216Z,26.63
2018-03-27T18:26:34.772Z,28.87
2018-03-27T18:29:05.429Z,31.77
2018-03-27T18:31:33.973Z,28.93
2018-03-27T18:34:02.976Z,30.53
2018-03-27T18:36:31.456Z,25.87
2018-03-27T18:38:58.998Z,30.30
2018-03-27T18:41:26.546Z,25.47
2018-03-27T18:44:01.143Z,27.13
2018-03-27T18:46:29.412Z,26.57
2018-03-27T18:48:58.764Z,24.60
2018-03-27T18:51:26.252Z,25.50
2018-03-27T18:53:53.877Z,24.90
2018-03-27T18:56:23.038Z,23.87
2018-03-27T18:58:51.353Z,22.97
2018-03-27T19:01:19.501Z,22.07
2018-03-27T19:03:47.056Z,23.33
2018-03-27T19:06:16.034Z,25.37
2018-03-27T19:08:46.726Z,22.53
2018-03-27T19:11:14.740Z,22.77
2018-03-27T19:13:42.642Z,23.30
2018-03-27T19:16:13.657Z,23.10
2018-03-27T19:18:43.477Z,22.57
2018-03-27T19:21:11.953Z,22.70
2018-03-27T19:23:40.209Z,23.40
2018-03-27T19:26:07.800Z,23.40
2018-03-27T19:28:35.335Z,21.57
2018-03-27T19:31:03.991Z,22.23
2018-03-27T19:33:36.434Z,22.20
2018-03-27T19:36:04.823Z,23.03
2018-03-27T19:38:33.794Z,23.20
2018-03-27T19:41:02.125Z,23.50
2018-03-27T19:43:32.808Z,20.57
2018-03-27T19:46:01.141Z,22.50
2018-03-27T19:48:29.561Z,21.27
2018-03-27T19:50:57.126Z,21.73
2018-03-27T19:53:24.667Z,20.20
2018-03-27T19:55:52.172Z,20.33
2018-03-27T19:58:21.993Z,19.37
2018-03-27T20:00:50.409Z,21.67
2018-03-27T20:03:17.948Z,21.13
2018-03-27T20:08:37.787Z,19.80
2018-03-27T20:11:06.060Z,20.17
2018-03-27T20:13:34.686Z,19.57
2018-03-27T20:16:04.243Z,17.90
2018-03-27T20:18:32.001Z,18.77
2018-03-27T20:21:00.803Z,17.70
2018-03-27T20:23:28.771Z,17.77
2018-03-27T20:25:57.224Z,17.90
2018-03-27T20:28:26.459Z,17.77
2018-03-27T20:30:56.871Z,16.97
2018-03-27T20:33:25.281Z,18.60
2018-03-27T20:35:53.132Z,19.30
2018-03-27T20:38:21.645Z,18.03
2018-03-27T20:40:51.386Z,17.73
2018-03-27T20:43:20.403Z,18.70
2018-03-27T20:45:49.261Z,17.37
2018-03-27T20:48:17.065Z,19.10
2018-03-27T20:50:44.607Z,17.50
2018-03-27T20:53:12.719Z,16.93
2018-03-27T20:55:41.353Z,18.07
2018-03-27T20:58:11.041Z,17.30
2018-03-27T21:00:39.381Z,16.10
2018-03-27T21:03:08.155Z,16.97
2018-03-27T21:08:10.793Z,16.80
2018-03-27T21:10:39.439Z,17.17
2018-03-27T21:13:07.619Z,16.27
2018-03-27T21:15:35.471Z,15.87
2018-03-27T21:18:05.696Z,17.63
2018-03-27T21:20:33.360Z,16.60
2018-03-27T21:25:34.661Z,16.57
2018-03-27T21:28:03.036Z,16.03
2018-03-27T21:30:30.893Z,16.47
2018-03-27T21:32:58.452Z,16.00
2018-03-27T21:35:26.744Z,15.53
2018-03-27T21:37:55.107Z,15.60
2018-03-27T21:40:22.645Z,16.33
2018-03-27T21:42:50.167Z,15.37
2018-03-27T21:45:17.685Z,16.00
2018-03-27T21:47:45.183Z,16.83
2018-03-27T21:50:12.712Z,15.47
2018-03-27T21:52:40.267Z,15.90
2018-03-27T21:55:07.747Z,15.23
2018-03-27T21:57:36.007Z,15.97
2018-03-27T22:00:04.307Z,16.37
2018-03-27T22:02:32.731Z,16.53
2018-03-27T22:05:00.842Z,16.57
2018-03-27T22:07:29.103Z,17.43
2018-03-27T22:09:57.404Z,16.90
2018-03-27T22:12:25.665Z,17.23
2018-03-27T22:14:53.910Z,18.27
2018-03-27T22:17:21.431Z,19.60
2018-03-27T22:19:48.937Z,18.23
2018-03-27T22:22:16.447Z,19.23
2018-03-27T22:24:43.951Z,18.00
2018-03-27T22:27:11.437Z,18.60
2018-03-27T22:29:39.691Z,19.30
2018-03-27T22:32:07.195Z,20.30
2018-03-27T22:34:34.707Z,18.97
2018-03-27T22:37:02.181Z,19.13
2018-03-27T22:39:30.429Z,19.93
2018-03-27T22:41:57.924Z,20.00
2018-03-27T22:44:26.162Z,19.37
2018-03-27T22:46:53.646Z,20.57
2018-03-27T22:49:21.934Z,20.20
2018-03-27T22:51:49.388Z,19.80
2018-03-27T22:54:16.863Z,20.00
2018-03-27T22:56:44.332Z,18.57
2018-03-27T22:59:11.791Z,19.97
2018-03-27T23:01:39.251Z,19.40
2018-03-27T23:04:06.721Z,18.53
2018-03-27T23:06:34.176Z,18.20
2018-03-27T23:09:01.652Z,18.60
2018-03-27T23:11:29.120Z,19.80
2018-03-27T23:13:56.585Z,19.03
2018-03-27T23:16:24.837Z,18.83
2018-03-27T23:18:53.073Z,19.43
2018-03-27T23:21:20.541Z,18.43
2018-03-27T23:23:47.991Z,17.97
2018-03-27T23:26:15.441Z,17.67
2018-03-27T23:28:42.901Z,18.47
2018-03-27T23:31:10.337Z,17.60
2018-03-27T23:33:37.822Z,19.50
2018-03-27T23:36:05.289Z,18.73
2018-03-27T23:38:33.509Z,17.73
2018-03-27T23:41:01.729Z,18.13
2018-03-27T23:43:29.192Z,17.37
2018-03-27T23:45:56.676Z,17.00
2018-03-27T23:48:24.132Z,17.70
2018-03-27T23:50:51.593Z,16.60
2018-03-27T23:53:19.093Z,19.23
2018-03-27T23:55:46.771Z,17.53
2018-03-27T23:58:14.235Z,18.50
